createdAt,value
2023-02-17T00:01:18.529Z,34.60
2023-02-17T00:03:48.538Z,35.80
2023-02-17T00:06:18.875Z,35.10
2023-02-17T00:08:48.504Z,35.00
2023-02-17T00:11:17.298Z,35.00
2023-02-17T00:13:45.827Z,35.00
2023-02-17T00:16:19.243Z,34.70
2023-02-17T00:18:47.801Z,35.00
2023-02-17T00:21:17.568Z,34.90
2023-02-17T00:23:46.554Z,35.00
2023-02-17T00:26:14.817Z,35.10
2023-02-17T00:28:44.878Z,35.20
2023-02-17T00:31:17.725Z,35.60
2023-02-17T00:33:46.121Z,35.60
2023-02-17T00:36:17.921Z,35.40
2023-02-17T00:38:46.681Z,35.20
2023-02-17T00:41:16.587Z,35.60
2023-02-17T00:43:45.329Z,35.30
2023-02-17T00:46:13.836Z,36.00
2023-02-17T00:48:43.506Z,35.80
2023-02-17T00:51:13.529Z,35.80
2023-02-17T00:53:41.984Z,35.70
2023-02-17T00:56:10.835Z,35.70
2023-02-17T00:58:39.434Z,35.70
2023-02-17T01:01:07.582Z,35.60
2023-02-17T01:03:35.773Z,36.20
2023-02-17T01:06:10.709Z,36.10
2023-02-17T01:08:38.913Z,36.20
2023-02-17T01:11:07.261Z,36.60
2023-02-17T01:13:35.412Z,36.40
2023-02-17T01:16:03.960Z,36.60
2023-02-17T01:18:32.801Z,36.80
2023-02-17T01:21:00.876Z,36.60
2023-02-17T01:23:30.545Z,36.60
2023-02-17T01:25:58.656Z,37.10
2023-02-17T01:28:26.818Z,37.50
2023-02-17T01:30:54.957Z,37.80
2023-02-17T01:33:23.134Z,37.30
2023-02-17T01:35:51.265Z,37.60
2023-02-17T01:38:19.433Z,38.60
2023-02-17T01:40:49.716Z,37.90
2023-02-17T01:43:18.916Z,37.70
2023-02-17T01:45:53.456Z,37.90
2023-02-17T01:48:24.961Z,38.10
2023-02-17T01:50:56.612Z,37.80
2023-02-17T01:53:31.768Z,37.90
2023-02-17T01:56:01.499Z,37.90
2023-02-17T01:58:31.991Z,38.40
2023-02-17T02:01:03.482Z,38.70
2023-02-17T02:03:35.752Z,38.80
2023-02-17T02:06:08.336Z,38.40
2023-02-17T02:08:43.861Z,38.60
2023-02-17T02:11:13.428Z,38.30
2023-02-17T02:13:41.653Z,38.70
2023-02-17T02:16:16.987Z,38.70
2023-02-17T02:18:55.680Z,38.30
2023-02-17T02:22:01.321Z,38.70
2023-02-17T02:24:43.636Z,38.50
2023-02-17T02:27:38.401Z,39.00
2023-02-17T02:30:45.444Z,39.80
2023-02-17T02:33:27.797Z,39.40
2023-02-17T02:36:05.205Z,39.60
2023-02-17T02:38:41.872Z,39.60
2023-02-17T02:41:14.083Z,39.90
2023-02-17T02:43:43.605Z,39.60
2023-02-17T02:46:12.214Z,40.20
2023-02-17T02:48:43.286Z,40.90
2023-02-17T02:51:26.372Z,40.80
2023-02-17T02:54:23.129Z,42.00
2023-02-17T02:57:05.961Z,41.00
2023-02-17T02:59:47.077Z,41.20
2023-02-17T03:02:21.438Z,40.60
2023-02-17T03:04:57.464Z,41.10
2023-02-17T03:07:30.649Z,41.10
2023-02-17T03:10:00.910Z,41.30
2023-02-17T03:12:31.599Z,41.70
2023-02-17T03:15:03.588Z,41.70
2023-02-17T03:17:33.175Z,41.70
2023-02-17T03:20:05.904Z,41.90
2023-02-17T03:22:37.495Z,42.80
2023-02-17T03:25:06.202Z,43.00
2023-02-17T03:27:34.349Z,43.50
2023-02-17T03:30:02.543Z,43.70
2023-02-17T03:32:30.873Z,44.00
2023-02-17T03:34:59.213Z,44.80
2023-02-17T03:37:29.106Z,45.80
2023-02-17T03:39:57.200Z,46.40
2023-02-17T03:42:26.034Z,47.00
2023-02-17T03:44:54.267Z,47.00
2023-02-17T03:47:22.365Z,47.40
2023-02-17T03:49:51.651Z,47.50
2023-02-17T03:52:20.253Z,48.00
2023-02-17T03:54:49.691Z,48.10
2023-02-17T03:57:17.819Z,48.50
2023-02-17T03:59:45.963Z,48.60
2023-02-17T04:02:14.417Z,48.50
2023-02-17T04:04:42.698Z,48.50
2023-02-17T04:07:10.828Z,48.50
2023-02-17T04:09:38.913Z,48.70
2023-02-17T04:12:08.577Z,49.00
2023-02-17T04:14:37.117Z,48.80
2023-02-17T04:17:05.178Z,48.70
2023-02-17T04:19:33.338Z,48.70
2023-02-17T04:22:01.460Z,48.60
2023-02-17T04:24:29.612Z,48.60
2023-02-17T04:26:57.760Z,48.70
2023-02-17T04:29:27.388Z,49.20
2023-02-17T04:31:55.645Z,48.50
2023-02-17T04:34:23.809Z,49.20
2023-02-17T04:36:52.083Z,48.70
2023-02-17T04:39:20.356Z,48.60
2023-02-17T04:41:48.624Z,48.60
2023-02-17T04:44:17.024Z,48.60
2023-02-17T04:46:46.510Z,48.70
2023-02-17T04:49:14.686Z,48.90
2023-02-17T04:51:43.021Z,49.00
2023-02-17T04:54:11.139Z,49.00
2023-02-17T04:56:39.306Z,48.90
2023-02-17T04:59:07.382Z,48.90
2023-02-17T05:01:35.463Z,49.30
2023-02-17T05:04:05.315Z,49.80
2023-02-17T05:06:33.370Z,49.30
2023-02-17T05:09:01.489Z,49.60
2023-02-17T05:11:29.793Z,49.90
2023-02-17T05:13:57.947Z,50.50
2023-02-17T05:16:26.123Z,49.60
2023-02-17T05:18:55.033Z,49.90
2023-02-17T05:21:24.556Z,49.90
2023-02-17T05:23:52.869Z,50.60
2023-02-17T05:26:21.098Z,50.20
2023-02-17T05:28:49.509Z,51.00
2023-02-17T05:31:18.938Z,50.80
2023-02-17T05:33:47.055Z,51.40
2023-02-17T05:36:15.417Z,52.10
2023-02-17T05:38:49.127Z,51.20
2023-02-17T05:41:17.286Z,51.60
2023-02-17T05:43:45.808Z,51.60
2023-02-17T05:46:14.031Z,51.60
2023-02-17T05:48:42.622Z,52.10
2023-02-17T05:51:10.750Z,52.00
2023-02-17T05:53:38.846Z,52.00
2023-02-17T05:56:09.117Z,51.60
2023-02-17T05:58:37.401Z,51.10
2023-02-17T06:01:09.519Z,50.90
2023-02-17T06:03:37.708Z,51.70
2023-02-17T06:06:07.416Z,51.00
2023-02-17T06:08:35.893Z,51.00
2023-02-17T06:11:04.137Z,51.20
2023-02-17T06:13:33.728Z,50.80
2023-02-17T06:16:01.981Z,51.30
2023-02-17T06:18:30.742Z,51.40
2023-02-17T06:20:59.595Z,50.70
2023-02-17T06:23:28.383Z,50.80
2023-02-17T06:25:57.217Z,51.00
2023-02-17T06:28:25.446Z,51.40
2023-02-17T06:30:54.979Z,51.40
2023-02-17T06:33:23.211Z,51.90
2023-02-17T06:35:52.366Z,50.90
2023-02-17T06:38:20.865Z,50.90
2023-02-17T06:40:49.101Z,50.70
2023-02-17T06:43:17.165Z,51.40
2023-02-17T06:45:45.433Z,51.10
2023-02-17T06:48:15.095Z,51.40
2023-02-17T06:50:43.238Z,51.30
2023-02-17T06:53:11.370Z,51.50
2023-02-17T06:55:39.646Z,52.10
2023-02-17T06:58:08.545Z,52.10
2023-02-17T07:00:36.717Z,51.90
2023-02-17T07:03:04.967Z,52.10
2023-02-17T07:05:36.169Z,53.00
2023-02-17T07:08:05.253Z,53.30
2023-02-17T07:10:34.598Z,53.50
2023-02-17T07:13:02.741Z,53.80
2023-02-17T07:15:30.882Z,54.20
2023-02-17T07:17:59.067Z,54.40
2023-02-17T07:20:27.234Z,54.90
2023-02-17T07:22:56.725Z,55.80
2023-02-17T07:25:24.929Z,56.40
2023-02-17T07:27:53.174Z,56.90
2023-02-17T07:30:21.497Z,57.60
2023-02-17T07:32:49.629Z,57.40
2023-02-17T07:35:17.947Z,58.40
2023-02-17T07:37:46.103Z,58.90
2023-02-17T07:40:15.768Z,60.20
2023-02-17T07:42:43.939Z,60.10
2023-02-17T07:45:12.080Z,60.80
2023-02-17T07:47:40.269Z,60.80
2023-02-17T07:50:09.568Z,61.40
2023-02-17T07:52:38.174Z,61.90
2023-02-17T07:55:06.947Z,62.00
2023-02-17T07:57:36.536Z,61.90
2023-02-17T08:00:06.777Z,61.60
2023-02-17T08:02:40.908Z,60.70
2023-02-17T08:05:09.238Z,60.50
2023-02-17T08:07:37.442Z,60.80
2023-02-17T08:10:24.382Z,61.00
2023-02-17T08:13:11.494Z,61.00
2023-02-17T08:15:39.628Z,61.30
2023-02-17T08:18:07.967Z,61.10
2023-02-17T08:20:36.100Z,60.70
2023-02-17T08:23:04.678Z,60.80
2023-02-17T08:25:34.281Z,61.20
2023-02-17T08:28:04.845Z,61.20
2023-02-17T08:30:35.810Z,61.10
2023-02-17T08:33:03.997Z,60.70
2023-02-17T08:35:32.202Z,60.70
2023-02-17T08:38:00.356Z,60.90
2023-02-17T08:40:28.404Z,60.80
2023-02-17T08:42:56.549Z,60.60
2023-02-17T08:45:26.600Z,60.90
2023-02-17T08:47:54.689Z,61.70
2023-02-17T08:50:23.734Z,62.20
2023-02-17T08:52:51.839Z,62.20
2023-02-17T08:55:22.854Z,61.70
2023-02-17T08:57:51.380Z,61.80
2023-02-17T09:00:20.221Z,61.90
2023-02-17T09:02:49.640Z,61.60
2023-02-17T09:05:17.776Z,62.20
2023-02-17T09:07:46.356Z,63.80
2023-02-17T09:10:15.273Z,67.10
2023-02-17T09:12:43.468Z,69.80
2023-02-17T09:15:11.769Z,71.10
2023-02-17T09:17:41.751Z,72.60
2023-02-17T09:20:24.350Z,72.90
2023-02-17T09:22:53.228Z,72.60
2023-02-17T09:25:21.506Z,74.40
2023-02-17T09:27:49.990Z,73.90
2023-02-17T09:30:18.126Z,75.10
2023-02-17T09:32:46.416Z,75.90
2023-02-17T09:35:16.837Z,76.40
2023-02-17T09:37:45.092Z,75.90
2023-02-17T09:40:18.870Z,76.90
2023-02-17T09:42:47.300Z,77.70
2023-02-17T09:45:20.436Z,77.50
2023-02-17T09:47:51.662Z,77.50
2023-02-17T09:50:26.952Z,76.20
2023-02-17T09:52:59.812Z,76.30
2023-02-17T09:55:33.107Z,77.70
2023-02-17T09:58:05.937Z,77.40
2023-02-17T10:00:36.826Z,76.70
2023-02-17T10:03:13.036Z,76.20
2023-02-17T10:05:47.909Z,76.40
2023-02-17T10:08:20.416Z,76.60
2023-02-17T10:10:54.027Z,76.30
2023-02-17T10:13:25.353Z,76.90
2023-02-17T10:15:54.844Z,77.00
2023-02-17T10:18:32.141Z,76.80
2023-02-17T10:21:07.334Z,77.70
2023-02-17T10:23:35.819Z,77.60
2023-02-17T10:26:16.262Z,76.70
2023-02-17T10:28:51.285Z,77.00
2023-02-17T10:31:29.569Z,77.40
2023-02-17T10:34:04.175Z,77.10
2023-02-17T10:36:48.347Z,77.50
2023-02-17T10:39:23.118Z,77.40
2023-02-17T10:41:53.778Z,78.10
2023-02-17T10:44:26.092Z,77.90
2023-02-17T10:46:55.515Z,78.20
2023-02-17T10:49:29.091Z,78.20
2023-02-17T10:52:02.969Z,77.00
2023-02-17T10:54:36.987Z,76.70
2023-02-17T10:57:10.325Z,76.10
2023-02-17T10:59:41.730Z,76.20
2023-02-17T11:02:18.990Z,76.90
2023-02-17T11:04:49.825Z,76.20
2023-02-17T11:07:24.981Z,76.10
2023-02-17T11:10:00.328Z,76.70
2023-02-17T11:12:34.132Z,76.40
2023-02-17T11:15:05.993Z,76.50
2023-02-17T11:17:39.304Z,76.20
2023-02-17T11:20:27.781Z,76.00
2023-02-17T11:23:06.754Z,75.50
2023-02-17T11:25:37.700Z,75.30
2023-02-17T11:28:08.667Z,76.50
2023-02-17T11:30:37.295Z,75.20
2023-02-17T11:33:15.240Z,74.30
2023-02-17T11:35:51.062Z,74.00
2023-02-17T11:38:23.052Z,73.90
2023-02-17T11:40:58.058Z,73.90
2023-02-17T11:43:28.555Z,73.90
2023-02-17T11:46:06.332Z,73.60
2023-02-17T11:49:00.572Z,73.00
2023-02-17T11:51:39.590Z,72.10
2023-02-17T11:54:22.497Z,72.40
2023-02-17T11:57:02.111Z,72.00
2023-02-17T11:59:53.327Z,71.40
2023-02-17T12:02:39.797Z,71.30
2023-02-17T12:05:22.982Z,72.20
2023-02-17T12:08:04.476Z,71.50
2023-02-17T12:10:46.522Z,71.20
2023-02-17T12:13:27.953Z,70.70
2023-02-17T12:16:07.705Z,70.90
2023-02-17T12:18:49.405Z,71.00
2023-02-17T12:21:27.922Z,71.70
2023-02-17T12:24:19.731Z,72.10
2023-02-17T12:26:53.305Z,71.60
2023-02-17T12:29:42.740Z,70.90
2023-02-17T12:32:27.817Z,70.70
2023-02-17T12:35:00.422Z,70.90
2023-02-17T12:37:33.745Z,71.20
2023-02-17T12:40:06.263Z,71.00
2023-02-17T12:42:38.504Z,71.00
2023-02-17T12:45:09.000Z,71.00
2023-02-17T12:47:46.294Z,70.60
2023-02-17T12:50:21.509Z,70.10
2023-02-17T12:52:54.725Z,69.90
2023-02-17T12:55:27.361Z,69.60
2023-02-17T12:58:00.689Z,69.30
2023-02-17T13:00:34.660Z,69.40
2023-02-17T13:03:04.726Z,68.30
2023-02-17T13:05:38.508Z,68.00
2023-02-17T13:08:10.126Z,67.80
2023-02-17T13:10:40.256Z,67.40
2023-02-17T13:13:14.320Z,66.90
2023-02-17T13:15:44.660Z,67.10
2023-02-17T13:18:15.926Z,66.80
2023-02-17T13:20:59.377Z,66.80
2023-02-17T13:23:35.875Z,67.10
2023-02-17T13:26:26.276Z,67.00
2023-02-17T13:29:08.883Z,66.80
2023-02-17T13:31:48.051Z,67.40
2023-02-17T13:34:30.694Z,66.90
2023-02-17T13:37:00.784Z,66.40
2023-02-17T13:39:35.290Z,65.90
2023-02-17T13:42:04.229Z,66.20
2023-02-17T13:44:39.618Z,66.20
2023-02-17T13:47:15.441Z,66.00
2023-02-17T13:49:43.607Z,65.30
2023-02-17T13:52:18.093Z,65.90
2023-02-17T13:54:54.136Z,65.60
2023-02-17T13:57:27.196Z,65.90
2023-02-17T14:00:07.262Z,65.80
2023-02-17T14:02:46.720Z,64.80
2023-02-17T14:05:20.308Z,64.30
2023-02-17T14:07:49.358Z,64.40
2023-02-17T14:10:23.569Z,63.70
2023-02-17T14:12:52.450Z,63.20
2023-02-17T14:15:24.804Z,63.10
2023-02-17T14:17:52.972Z,64.10
2023-02-17T14:20:30.397Z,63.40
2023-02-17T14:23:06.824Z,62.00
2023-02-17T14:25:37.657Z,61.60
2023-02-17T14:28:18.210Z,61.30
2023-02-17T14:30:48.040Z,60.90
2023-02-17T14:33:22.202Z,60.80
2023-02-17T14:35:56.270Z,60.50
2023-02-17T14:38:26.488Z,60.70
2023-02-17T14:40:57.913Z,60.60
2023-02-17T14:43:26.317Z,60.00
2023-02-17T14:45:56.155Z,59.60
2023-02-17T14:48:27.376Z,59.70
2023-02-17T14:50:57.782Z,59.10
2023-02-17T14:53:28.252Z,58.80
2023-02-17T14:56:00.880Z,59.10
2023-02-17T14:58:30.709Z,59.10
2023-02-17T15:01:00.713Z,58.90
2023-02-17T15:03:29.312Z,58.70
2023-02-17T15:05:57.660Z,59.50
2023-02-17T15:08:33.207Z,58.60
2023-02-17T15:11:02.469Z,58.50
2023-02-17T15:13:31.787Z,58.80
2023-02-17T15:16:02.112Z,59.10
2023-02-17T15:18:30.321Z,59.80
2023-02-17T15:20:58.484Z,59.90
2023-02-17T15:23:26.854Z,60.40
2023-02-17T15:25:56.857Z,60.40
2023-02-17T15:28:25.386Z,60.90
2023-02-17T15:30:56.299Z,60.70
2023-02-17T15:33:26.219Z,61.00
2023-02-17T15:35:55.447Z,61.80
2023-02-17T15:38:27.389Z,60.30
2023-02-17T15:40:58.771Z,60.80
2023-02-17T15:46:05.346Z,60.80
2023-02-17T15:48:35.159Z,60.80
2023-02-17T15:51:03.536Z,61.10
2023-02-17T15:53:33.544Z,60.90
2023-02-17T15:56:01.829Z,61.20
2023-02-17T15:58:31.072Z,61.90
2023-02-17T16:01:04.146Z,61.60
2023-02-17T16:03:32.519Z,61.80
2023-02-17T16:06:03.154Z,61.40
2023-02-17T16:08:31.238Z,61.60
2023-02-17T16:10:59.478Z,61.40
2023-02-17T16:13:28.787Z,61.50
2023-02-17T16:15:59.622Z,61.70
2023-02-17T16:18:27.832Z,62.30
2023-02-17T16:20:56.013Z,62.40
2023-02-17T16:23:25.714Z,62.70
2023-02-17T16:25:53.888Z,62.50
2023-02-17T16:28:24.084Z,62.80
2023-02-17T16:30:52.325Z,63.10
2023-02-17T16:33:20.719Z,63.10
2023-02-17T16:35:51.666Z,63.90
2023-02-17T16:38:23.431Z,63.80
2023-02-17T16:40:54.865Z,64.30
2023-02-17T16:43:25.582Z,64.70
2023-02-17T16:45:56.857Z,64.60
2023-02-17T16:48:26.583Z,65.90
2023-02-17T16:50:54.766Z,65.70
2023-02-17T16:53:23.525Z,65.50
2023-02-17T16:55:55.057Z,65.60
2023-02-17T16:58:24.743Z,66.10
2023-02-17T17:00:56.021Z,65.80
2023-02-17T17:03:24.442Z,66.60
2023-02-17T17:05:53.683Z,67.40
2023-02-17T17:08:22.443Z,67.90
2023-02-17T17:10:52.093Z,68.00
2023-02-17T17:13:20.597Z,68.20
2023-02-17T17:15:48.979Z,68.30
2023-02-17T17:18:22.390Z,68.20
2023-02-17T17:20:51.225Z,69.10
2023-02-17T17:23:19.964Z,69.10
2023-02-17T17:25:48.708Z,69.90
2023-02-17T17:28:20.170Z,69.70
2023-02-17T17:30:48.621Z,69.20
2023-02-17T17:33:17.667Z,68.20
2023-02-17T17:35:45.896Z,68.80
2023-02-17T17:38:16.492Z,69.30
2023-02-17T17:40:53.414Z,69.70
2023-02-17T17:43:23.583Z,70.00
2023-02-17T17:45:52.911Z,69.60
2023-02-17T17:48:21.292Z,69.20
2023-02-17T17:50:50.370Z,69.60
2023-02-17T17:53:18.589Z,69.40
2023-02-17T17:55:47.748Z,69.40
2023-02-17T17:58:17.291Z,70.00
2023-02-17T18:00:47.233Z,70.10
2023-02-17T18:03:15.431Z,69.20
2023-02-17T18:05:43.748Z,69.70
2023-02-17T18:08:12.425Z,69.60
2023-02-17T18:10:42.034Z,69.50
2023-02-17T18:13:11.597Z,69.30
2023-02-17T18:15:41.106Z,69.20
2023-02-17T18:18:11.882Z,70.20
2023-02-17T18:20:40.011Z,71.10
2023-02-17T18:23:08.173Z,71.30
2023-02-17T18:25:36.312Z,71.30
2023-02-17T18:28:04.609Z,70.90
2023-02-17T18:30:32.994Z,71.00
2023-02-17T18:33:01.289Z,70.20
2023-02-17T18:35:30.877Z,69.90
2023-02-17T18:37:59.034Z,70.80
2023-02-17T18:40:29.261Z,70.80
2023-02-17T18:42:57.806Z,71.10
2023-02-17T18:45:26.301Z,72.10
2023-02-17T18:47:54.552Z,72.10
2023-02-17T18:50:22.856Z,71.10
2023-02-17T18:52:52.344Z,71.90
2023-02-17T18:55:20.981Z,71.40
2023-02-17T18:57:49.427Z,72.00
2023-02-17T19:00:18.750Z,71.90
2023-02-17T19:02:46.939Z,72.90
2023-02-17T19:05:17.512Z,71.90
2023-02-17T19:07:45.965Z,71.40
2023-02-17T19:10:16.325Z,72.00
2023-02-17T19:12:44.429Z,71.50
2023-02-17T19:15:13.906Z,70.90
2023-02-17T19:17:42.231Z,71.50
2023-02-17T19:20:11.488Z,71.90
2023-02-17T19:22:39.789Z,71.50
2023-02-17T19:25:09.049Z,71.60
2023-02-17T19:27:40.241Z,71.30
2023-02-17T19:30:10.070Z,72.20
2023-02-17T19:32:38.544Z,72.00
2023-02-17T19:35:07.234Z,72.40
2023-02-17T19:37:35.722Z,72.10
2023-02-17T19:40:04.063Z,72.50
2023-02-17T19:42:32.186Z,72.90
2023-02-17T19:45:01.758Z,71.70
2023-02-17T19:47:30.928Z,71.50
2023-02-17T19:49:59.365Z,71.20
2023-02-17T19:52:28.571Z,70.60
2023-02-17T19:54:57.006Z,71.00
2023-02-17T19:57:25.080Z,71.10
2023-02-17T19:59:53.391Z,71.00
2023-02-17T20:02:23.000Z,71.10
2023-02-17T20:04:51.277Z,71.10
2023-02-17T20:07:19.482Z,71.10
2023-02-17T20:09:47.966Z,70.70
2023-02-17T20:12:17.594Z,70.40
2023-02-17T20:14:45.898Z,70.00
2023-02-17T20:17:14.203Z,70.60
2023-02-17T20:19:43.784Z,70.80
2023-02-17T20:22:11.985Z,72.20
2023-02-17T20:24:40.860Z,72.60
2023-02-17T20:27:10.039Z,72.30
2023-02-17T20:29:38.174Z,72.60
2023-02-17T20:32:06.873Z,72.00
2023-02-17T20:34:37.508Z,72.20
2023-02-17T20:37:08.880Z,71.90
2023-02-17T20:39:39.048Z,71.10
2023-02-17T20:42:07.230Z,71.10
2023-02-17T20:44:35.770Z,71.20
2023-02-17T20:47:04.141Z,72.00
2023-02-17T20:49:32.237Z,71.50
2023-02-17T20:52:00.717Z,71.30
2023-02-17T20:54:30.562Z,72.00
2023-02-17T20:57:01.119Z,71.20
2023-02-17T20:59:29.394Z,71.50
2023-02-17T21:01:57.595Z,71.60
2023-02-17T21:04:25.918Z,71.70
2023-02-17T21:06:54.138Z,71.80
2023-02-17T21:09:22.606Z,72.90
2023-02-17T21:11:52.227Z,73.10
2023-02-17T21:14:20.367Z,72.90
2023-02-17T21:16:49.010Z,72.80
2023-02-17T21:19:19.486Z,72.60
2023-02-17T21:21:47.810Z,73.30
2023-02-17T21:24:16.540Z,73.50
2023-02-17T21:26:44.746Z,73.90
2023-02-17T21:29:14.379Z,74.10
2023-02-17T21:31:42.689Z,73.90
2023-02-17T21:34:11.013Z,74.10
2023-02-17T21:36:39.255Z,73.40
2023-02-17T21:39:08.112Z,73.50
2023-02-17T21:41:36.612Z,74.40
2023-02-17T21:44:22.030Z,73.40
2023-02-17T21:46:52.170Z,74.10
2023-02-17T21:49:20.598Z,73.60
2023-02-17T21:51:48.775Z,73.70
2023-02-17T21:54:17.396Z,73.50
2023-02-17T21:56:45.643Z,73.60
2023-02-17T21:59:13.878Z,73.70
2023-02-17T22:01:42.224Z,73.60
2023-02-17T22:04:11.978Z,73.80
2023-02-17T22:06:43.790Z,73.70
2023-02-17T22:09:15.288Z,74.10
2023-02-17T22:11:44.508Z,73.30
2023-02-17T22:14:14.902Z,72.90
2023-02-17T22:16:43.819Z,73.30
2023-02-17T22:19:19.317Z,73.10
2023-02-17T22:21:48.070Z,72.90
2023-02-17T22:24:17.034Z,72.50
2023-02-17T22:26:45.238Z,73.00
2023-02-17T22:29:13.428Z,73.90
2023-02-17T22:31:42.270Z,73.00
2023-02-17T22:34:11.231Z,72.90
2023-02-17T22:36:40.986Z,72.40
2023-02-17T22:39:10.376Z,72.50
2023-02-17T22:41:39.608Z,72.30
2023-02-17T22:44:08.896Z,72.70
2023-02-17T22:46:37.254Z,72.70
2023-02-17T22:49:05.748Z,72.20
2023-02-17T22:51:37.208Z,71.70
2023-02-17T22:54:07.804Z,71.70
2023-02-17T22:56:36.726Z,71.60
2023-02-17T22:59:05.725Z,72.30
2023-02-17T23:01:35.823Z,71.90
2023-02-17T23:04:05.042Z,72.00
2023-02-17T23:06:35.222Z,73.10
2023-02-17T23:09:04.265Z,73.10
2023-02-17T23:11:51.076Z,72.80
2023-02-17T23:14:22.044Z,73.30
2023-02-17T23:16:50.863Z,73.80
2023-02-17T23:19:21.361Z,73.80
2023-02-17T23:21:52.147Z,73.90
2023-02-17T23:24:21.809Z,74.10
2023-02-17T23:26:52.104Z,73.60
2023-02-17T23:29:20.630Z,73.50
2023-02-17T23:31:48.899Z,72.90
2023-02-17T23:34:17.586Z,73.00
2023-02-17T23:36:47.728Z,72.90
2023-02-17T23:39:17.162Z,73.00
2023-02-17T23:41:45.793Z,73.00
2023-02-17T23:44:16.732Z,73.60
2023-02-17T23:46:45.775Z,73.20
2023-02-17T23:49:15.784Z,73.10
2023-02-17T23:51:44.237Z,73.20
2023-02-17T23:54:12.442Z,73.40
2023-02-17T23:56:40.715Z,73.30
2023-02-17T23:59:09.066Z,72.80
